createdAt,value
2018-06-28T00:00:44.867Z,10.50
2018-06-28T00:03:15.530Z,10.53
2018-06-28T00:05:46.138Z,10.97
2018-06-28T00:08:16.836Z,12.00
2018-06-28T00:10:47.546Z,11.00
2018-06-28T00:13:18.215Z,11.27
2018-06-28T00:15:48.877Z,10.90
2018-06-28T00:18:19.705Z,10.13
2018-06-28T00:20:50.364Z,11.00
2018-06-28T00:23:21.269Z,9.90
2018-06-28T00:25:52.018Z,11.37
2018-06-28T00:28:22.650Z,11.13
2018-06-28T00:30:53.265Z,11.47
2018-06-28T00:33:24.005Z,10.63
2018-06-28T00:35:54.706Z,11.53
2018-06-28T00:38:25.364Z,10.23
2018-06-28T00:40:56.010Z,11.10
2018-06-28T00:43:26.680Z,11.00
2018-06-28T00:45:57.717Z,11.40
2018-06-28T00:48:28.431Z,10.60
2018-06-28T00:50:58.669Z,10.17
2018-06-28T00:53:29.217Z,11.50
2018-06-28T00:55:59.973Z,11.20
2018-06-28T00:58:30.727Z,11.27
2018-06-28T01:01:01.421Z,11.57
2018-06-28T01:03:32.252Z,11.77
2018-06-28T01:06:02.898Z,11.63
2018-06-28T01:08:33.909Z,10.67
2018-06-28T01:11:04.549Z,12.10
2018-06-28T01:13:35.210Z,11.77
2018-06-28T01:16:06.192Z,12.30
2018-06-28T01:18:36.884Z,12.20
2018-06-28T01:21:07.601Z,11.40
2018-06-28T01:23:38.574Z,11.20
2018-06-28T01:26:09.224Z,11.40
2018-06-28T01:28:39.971Z,10.60
2018-06-28T01:31:10.854Z,11.60
2018-06-28T01:33:41.639Z,11.90
2018-06-28T01:36:12.450Z,10.80
2018-06-28T01:38:43.265Z,11.37
2018-06-28T01:41:13.933Z,11.00
2018-06-28T01:43:45.767Z,10.53
2018-06-28T01:46:17.480Z,10.20
2018-06-28T01:48:48.189Z,10.13
2018-06-28T01:51:18.761Z,10.80
2018-06-28T01:53:49.422Z,10.60
2018-06-28T01:56:19.994Z,9.33
2018-06-28T01:58:51.569Z,9.70
2018-06-28T02:01:22.161Z,8.90
2018-06-28T02:03:52.893Z,9.80
2018-06-28T02:06:23.541Z,10.27
2018-06-28T02:08:54.167Z,10.37
2018-06-28T02:11:24.774Z,10.07
2018-06-28T02:13:55.498Z,9.73
2018-06-28T02:16:26.188Z,10.07
2018-06-28T02:18:56.897Z,9.57
2018-06-28T02:21:27.522Z,10.63
2018-06-28T02:23:58.456Z,9.60
2018-06-28T02:26:29.040Z,9.70
2018-06-28T02:28:59.673Z,10.70
2018-06-28T02:31:30.300Z,10.10
2018-06-28T02:34:00.943Z,8.80
2018-06-28T02:36:31.515Z,9.07
2018-06-28T02:39:02.114Z,8.10
2018-06-28T02:41:32.700Z,9.10
2018-06-28T02:44:03.360Z,8.93
2018-06-28T02:46:33.950Z,8.70
2018-06-28T02:49:04.736Z,8.57
2018-06-28T02:51:35.383Z,8.40
2018-06-28T02:54:06.095Z,8.20
2018-06-28T02:56:36.693Z,7.50
2018-06-28T02:59:07.272Z,6.47
2018-06-28T03:01:37.834Z,7.00
2018-06-28T03:04:08.483Z,8.33
2018-06-28T03:06:39.808Z,8.73
2018-06-28T03:09:11.922Z,9.40
2018-06-28T03:11:42.646Z,9.67
2018-06-28T03:14:13.249Z,9.23
2018-06-28T03:16:43.851Z,9.73
2018-06-28T03:19:14.483Z,9.70
2018-06-28T03:21:45.715Z,10.10
2018-06-28T03:24:16.471Z,9.43
2018-06-28T03:26:47.227Z,8.90
2018-06-28T03:29:17.902Z,8.17
2018-06-28T03:31:48.470Z,9.33
2018-06-28T03:34:19.327Z,20.10
2018-06-28T03:36:49.902Z,29.57
2018-06-28T03:39:20.724Z,17.20
2018-06-28T03:41:52.529Z,11.70
2018-06-28T03:44:23.154Z,9.77
2018-06-28T03:46:53.357Z,13.03
2018-06-28T03:49:23.955Z,16.97
2018-06-28T03:51:54.595Z,15.70
2018-06-28T03:54:25.284Z,11.10
2018-06-28T03:56:55.928Z,9.70
2018-06-28T03:59:26.618Z,10.33
2018-06-28T04:01:57.235Z,10.10
2018-06-28T04:04:27.839Z,10.47
2018-06-28T04:06:58.402Z,10.77
2018-06-28T04:09:29.038Z,11.37
2018-06-28T04:11:59.671Z,11.43
2018-06-28T04:14:30.300Z,11.87
2018-06-28T04:17:00.911Z,12.00
2018-06-28T04:19:31.613Z,10.30
2018-06-28T04:22:02.330Z,10.50
2018-06-28T04:24:33.064Z,10.27
2018-06-28T04:27:03.754Z,10.50
2018-06-28T04:29:34.345Z,9.03
2018-06-28T04:32:05.032Z,9.30
2018-06-28T04:34:35.707Z,8.10
2018-06-28T04:37:06.449Z,8.30
2018-06-28T04:39:37.534Z,8.53
2018-06-28T04:42:08.186Z,9.73
2018-06-28T04:44:38.856Z,7.30
2018-06-28T04:47:09.483Z,7.33
2018-06-28T04:49:40.732Z,8.23
2018-06-28T04:52:11.397Z,8.20
2018-06-28T04:54:42.046Z,7.50
2018-06-28T04:57:12.657Z,6.93
2018-06-28T04:59:43.334Z,6.90
2018-06-28T05:02:13.911Z,8.93
2018-06-28T05:04:44.488Z,7.80
2018-06-28T05:07:15.200Z,6.00
2018-06-28T05:09:45.805Z,6.47
2018-06-28T05:12:16.437Z,5.80
2018-06-28T05:14:47.037Z,5.20
2018-06-28T05:17:17.690Z,5.57
2018-06-28T05:19:48.276Z,5.33
2018-06-28T05:22:18.934Z,15.73
2018-06-28T05:24:49.552Z,7.57
2018-06-28T05:27:20.532Z,5.13
2018-06-28T05:29:51.138Z,5.60
2018-06-28T05:32:21.750Z,5.50
2018-06-28T05:34:52.387Z,5.33
2018-06-28T05:37:23.117Z,5.70
2018-06-28T05:39:53.662Z,4.73
2018-06-28T05:42:24.449Z,4.80
2018-06-28T05:44:55.167Z,5.00
2018-06-28T05:47:25.847Z,5.00
2018-06-28T05:49:56.472Z,24.50
2018-06-28T05:52:27.113Z,12.23
2018-06-28T05:54:57.746Z,10.60
2018-06-28T05:57:28.421Z,9.73
2018-06-28T05:59:59.009Z,11.00
2018-06-28T06:02:29.625Z,6.17
2018-06-28T06:05:00.225Z,4.17
2018-06-28T06:07:30.819Z,4.13
2018-06-28T06:10:01.336Z,4.30
2018-06-28T06:12:31.909Z,3.97
2018-06-28T06:15:02.531Z,4.90
2018-06-28T06:17:33.106Z,4.37
2018-06-28T06:20:03.661Z,4.20
2018-06-28T06:22:34.238Z,13.60
2018-06-28T06:25:05.178Z,19.27
2018-06-28T06:27:35.764Z,44.30
2018-06-28T06:30:07.812Z,7.80
2018-06-28T06:32:38.438Z,4.20
2018-06-28T06:35:09.082Z,3.67
2018-06-28T06:37:39.653Z,3.53
2018-06-28T06:40:10.311Z,3.67
2018-06-28T06:42:40.885Z,3.77
2018-06-28T06:45:11.499Z,17.30
2018-06-28T06:47:42.103Z,6.93
2018-06-28T06:50:12.741Z,4.63
2018-06-28T06:52:43.293Z,3.07
2018-06-28T06:55:13.839Z,3.30
2018-06-28T06:57:44.413Z,2.70
2018-06-28T07:00:14.943Z,3.30
2018-06-28T07:02:45.501Z,2.30
2018-06-28T07:05:16.342Z,2.10
2018-06-28T07:07:46.965Z,2.00
2018-06-28T07:10:17.513Z,2.70
2018-06-28T07:12:48.082Z,2.00
2018-06-28T07:15:18.638Z,2.60
2018-06-28T07:17:49.215Z,1.77
2018-06-28T07:20:19.807Z,2.17
2018-06-28T07:22:50.535Z,1.87
2018-06-28T07:25:21.049Z,1.80
2018-06-28T07:27:51.623Z,1.90
2018-06-28T07:30:22.265Z,2.00
2018-06-28T07:32:52.826Z,1.60
2018-06-28T07:35:23.528Z,1.97
2018-06-28T07:37:54.149Z,1.73
2018-06-28T07:40:24.798Z,2.03
2018-06-28T07:42:55.394Z,2.27
2018-06-28T07:45:26.017Z,1.50
2018-06-28T07:47:56.641Z,1.80
2018-06-28T07:50:27.347Z,1.70
2018-06-28T07:52:57.985Z,1.77
2018-06-28T07:55:28.684Z,1.77
2018-06-28T07:57:59.265Z,1.63
2018-06-28T08:00:29.513Z,2.23
2018-06-28T08:03:00.086Z,2.23
2018-06-28T08:05:30.743Z,1.80
2018-06-28T08:08:01.347Z,1.87
2018-06-28T08:10:31.956Z,1.67
2018-06-28T08:13:02.527Z,1.80
2018-06-28T08:15:33.098Z,1.70
2018-06-28T08:18:03.745Z,2.17
2018-06-28T08:20:34.305Z,2.10
2018-06-28T08:23:04.930Z,1.93
2018-06-28T08:25:35.593Z,1.97
2018-06-28T08:28:05.906Z,2.20
2018-06-28T08:30:36.422Z,2.60
2018-06-28T08:33:07.132Z,2.20
2018-06-28T08:35:37.752Z,2.00
2018-06-28T08:38:08.347Z,2.07
2018-06-28T08:40:39.017Z,2.20
2018-06-28T08:43:09.651Z,1.90
2018-06-28T08:45:40.302Z,2.03
2018-06-28T08:48:10.956Z,1.93
2018-06-28T08:50:41.503Z,2.20
2018-06-28T08:53:11.754Z,3.37
2018-06-28T08:55:42.238Z,3.47
2018-06-28T08:58:12.854Z,2.60
2018-06-28T09:00:43.410Z,2.07
2018-06-28T09:03:13.610Z,2.93
2018-06-28T09:05:44.153Z,2.50
2018-06-28T09:08:14.401Z,2.37
2018-06-28T09:10:44.933Z,2.60
2018-06-28T09:13:15.519Z,2.20
2018-06-28T09:15:46.152Z,3.00
2018-06-28T09:18:16.715Z,2.30
2018-06-28T09:20:47.378Z,2.30
2018-06-28T09:23:18.007Z,2.40
2018-06-28T09:25:48.605Z,2.70
2018-06-28T09:28:19.234Z,5.57
2018-06-28T09:30:49.827Z,5.40
2018-06-28T09:33:20.423Z,7.50
2018-06-28T09:35:51.043Z,4.53
2018-06-28T09:38:21.617Z,3.37
2018-06-28T09:40:52.208Z,2.40
2018-06-28T09:43:22.764Z,2.53
2018-06-28T09:45:53.382Z,2.43
2018-06-28T09:48:23.977Z,2.37
2018-06-28T09:50:54.192Z,2.43
2018-06-28T09:53:24.747Z,2.30
2018-06-28T09:55:55.294Z,2.57
2018-06-28T09:58:25.858Z,2.27
2018-06-28T10:00:56.487Z,2.37
2018-06-28T10:03:27.086Z,2.20
2018-06-28T10:05:57.675Z,2.37
2018-06-28T10:08:28.291Z,2.30
2018-06-28T10:10:58.862Z,2.60
2018-06-28T10:13:29.467Z,2.40
2018-06-28T10:16:00.052Z,2.60
2018-06-28T10:18:30.686Z,4.30
2018-06-28T10:21:01.353Z,12.70
2018-06-28T10:23:31.954Z,6.17
2018-06-28T10:26:02.570Z,2.60
2018-06-28T10:28:33.169Z,2.50
2018-06-28T10:31:03.843Z,2.47
2018-06-28T10:33:34.440Z,2.37
2018-06-28T10:36:05.054Z,2.20
2018-06-28T10:38:35.622Z,2.90
2018-06-28T10:41:06.211Z,2.40
2018-06-28T10:43:36.872Z,31.67
2018-06-28T10:46:07.489Z,22.93
2018-06-28T10:48:38.062Z,4.90
2018-06-28T10:51:08.745Z,3.53
2018-06-28T10:53:39.488Z,2.53
2018-06-28T10:56:10.075Z,2.50
2018-06-28T10:58:40.686Z,2.83
2018-06-28T11:01:11.292Z,2.53
2018-06-28T11:03:41.922Z,2.73
2018-06-28T11:06:12.499Z,2.67
2018-06-28T11:08:43.251Z,2.57
2018-06-28T11:11:13.922Z,2.67
2018-06-28T11:13:44.521Z,3.00
2018-06-28T11:16:15.105Z,2.70
2018-06-28T11:18:45.857Z,3.10
2018-06-28T11:21:16.362Z,5.17
2018-06-28T11:23:47.093Z,6.10
2018-06-28T11:26:17.659Z,8.33
2018-06-28T11:28:48.280Z,3.30
2018-06-28T11:31:18.845Z,2.87
2018-06-28T11:33:49.457Z,3.13
2018-06-28T11:36:20.483Z,2.63
2018-06-28T11:38:51.406Z,2.97
2018-06-28T11:41:22.076Z,2.80
2018-06-28T11:43:52.742Z,2.60
2018-06-28T11:46:23.333Z,2.53
2018-06-28T11:48:53.583Z,2.50
2018-06-28T11:51:24.126Z,3.10
2018-06-28T11:53:54.725Z,2.80
2018-06-28T11:56:25.397Z,2.90
2018-06-28T11:58:56.032Z,2.90
2018-06-28T12:01:26.725Z,2.50
2018-06-28T12:03:57.313Z,2.73
2018-06-28T12:06:28.730Z,2.60
2018-06-28T12:08:59.348Z,2.90
2018-06-28T12:11:29.972Z,2.63
2018-06-28T12:14:00.623Z,2.87
2018-06-28T12:16:31.203Z,2.80
2018-06-28T12:19:01.795Z,3.30
2018-06-28T12:21:32.528Z,3.10
2018-06-28T12:24:03.358Z,3.03
2018-06-28T12:26:33.913Z,3.10
2018-06-28T12:29:05.366Z,2.90
2018-06-28T12:31:35.977Z,2.90
2018-06-28T12:34:06.773Z,3.40
2018-06-28T12:36:37.352Z,3.10
2018-06-28T12:39:10.331Z,3.10
2018-06-28T12:41:40.936Z,3.30
2018-06-28T12:44:11.543Z,3.10
2018-06-28T12:48:11.527Z,3.00
2018-06-28T12:50:42.144Z,3.20
2018-06-28T12:53:13.506Z,3.30
2018-06-28T12:56:50.929Z,3.40
2018-06-28T12:59:22.825Z,3.27
2018-06-28T13:01:53.405Z,3.20
2018-06-28T13:04:24.059Z,3.30
2018-06-28T13:06:54.734Z,3.80
2018-06-28T13:09:25.398Z,3.50
2018-06-28T13:11:56.048Z,3.37
2018-06-28T13:14:26.695Z,3.53
2018-06-28T13:16:56.890Z,4.00
2018-06-28T13:19:27.380Z,3.70
2018-06-28T13:21:58.020Z,3.60
2018-06-28T13:24:28.690Z,3.67
2018-06-28T13:26:59.313Z,4.30
2018-06-28T13:29:30.068Z,3.50
2018-06-28T13:32:00.724Z,4.17
2018-06-28T13:34:31.367Z,4.47
2018-06-28T13:37:01.961Z,4.10
2018-06-28T13:39:32.713Z,3.83
2018-06-28T13:42:03.516Z,4.00
2018-06-28T13:44:34.027Z,4.17
2018-06-28T13:47:09.428Z,4.00
2018-06-28T13:49:39.982Z,4.03
2018-06-28T13:52:10.589Z,4.50
2018-06-28T13:54:41.262Z,4.77
2018-06-28T13:57:11.930Z,4.60
2018-06-28T13:59:42.597Z,4.70
2018-06-28T14:02:13.210Z,4.60
2018-06-28T14:04:43.798Z,3.97
2018-06-28T14:07:14.614Z,4.60
2018-06-28T14:09:45.343Z,5.00
2018-06-28T14:12:15.886Z,4.80
2018-06-28T14:14:47.201Z,4.10
2018-06-28T14:17:17.768Z,4.70
2018-06-28T14:19:48.703Z,4.97
2018-06-28T14:22:19.315Z,4.67
2018-06-28T14:24:49.881Z,4.33
2018-06-28T14:27:20.062Z,4.40
2018-06-28T14:29:50.579Z,5.97
2018-06-28T14:32:21.137Z,4.97
2018-06-28T14:34:51.761Z,5.30
2018-06-28T14:37:22.418Z,5.07
2018-06-28T14:39:53.063Z,5.60
2018-06-28T14:42:23.668Z,5.80
2018-06-28T14:44:54.303Z,5.40
2018-06-28T14:47:24.806Z,5.13
2018-06-28T14:49:55.403Z,5.90
2018-06-28T14:52:26.034Z,4.80
2018-06-28T14:54:56.611Z,5.07
2018-06-28T14:57:27.317Z,5.87
2018-06-28T14:59:57.950Z,6.50
2018-06-28T15:02:28.505Z,5.73
2018-06-28T15:04:59.130Z,5.80
2018-06-28T15:07:29.667Z,5.80
2018-06-28T15:10:00.276Z,5.57
2018-06-28T15:12:30.789Z,5.87
2018-06-28T15:15:01.415Z,5.20
2018-06-28T15:17:31.976Z,5.17
2018-06-28T15:20:02.620Z,5.83
2018-06-28T15:22:33.165Z,5.77
2018-06-28T15:25:03.747Z,4.93
2018-06-28T15:27:34.369Z,5.40
2018-06-28T15:30:05.459Z,5.30
2018-06-28T15:32:36.037Z,6.03
2018-06-28T15:35:06.727Z,5.80
2018-06-28T15:37:37.341Z,5.40
2018-06-28T15:40:08.802Z,5.43
2018-06-28T15:42:39.471Z,5.93
2018-06-28T15:45:10.086Z,5.97
2018-06-28T15:47:40.694Z,6.00
2018-06-28T15:50:11.316Z,5.67
2018-06-28T15:52:41.955Z,6.20
2018-06-28T15:55:12.546Z,5.77
2018-06-28T15:57:43.192Z,6.30
2018-06-28T16:00:13.799Z,6.40
2018-06-28T16:02:44.466Z,6.40
2018-06-28T16:05:15.081Z,5.93
2018-06-28T16:07:45.665Z,6.90
2018-06-28T16:10:16.307Z,6.20
2018-06-28T16:12:46.873Z,6.47
2018-06-28T16:15:17.504Z,6.40
2018-06-28T16:17:48.356Z,6.00
2018-06-28T16:20:19.035Z,6.90
2018-06-28T16:22:49.724Z,6.47
2018-06-28T16:25:20.399Z,6.70
2018-06-28T16:27:51.071Z,7.50
2018-06-28T16:30:21.779Z,19.10
2018-06-28T16:32:52.448Z,8.50
2018-06-28T16:35:23.026Z,7.60
2018-06-28T16:37:53.652Z,7.30
2018-06-28T16:40:24.313Z,6.87
2018-06-28T16:42:54.941Z,7.93
2018-06-28T16:45:25.550Z,7.17
2018-06-28T16:47:56.153Z,7.00
2018-06-28T16:50:26.917Z,7.77
2018-06-28T16:52:57.308Z,8.13
2018-06-28T16:55:27.860Z,7.50
2018-06-28T16:57:58.518Z,8.07
2018-06-28T17:00:29.183Z,7.17
2018-06-28T17:02:59.771Z,7.93
2018-06-28T17:05:30.517Z,7.37
2018-06-28T17:08:01.205Z,8.00
2018-06-28T17:10:31.867Z,7.80
2018-06-28T17:13:02.113Z,8.03
2018-06-28T17:15:32.682Z,7.90
2018-06-28T17:18:03.318Z,8.30
2018-06-28T17:20:33.992Z,8.10
2018-06-28T17:23:04.703Z,12.63
2018-06-28T17:25:35.418Z,21.13
2018-06-28T17:28:06.365Z,24.00
2018-06-28T17:30:37.047Z,9.50
2018-06-28T17:33:07.661Z,8.30
2018-06-28T17:35:38.658Z,8.90
2018-06-28T17:38:09.392Z,8.53
2018-06-28T17:40:40.083Z,8.60
2018-06-28T17:43:10.760Z,8.87
2018-06-28T17:45:41.392Z,8.53
2018-06-28T17:48:12.052Z,8.40
2018-06-28T17:50:42.898Z,7.80
2018-06-28T17:53:13.463Z,8.17
2018-06-28T17:55:44.369Z,7.87
2018-06-28T17:58:14.997Z,7.53
2018-06-28T18:00:45.650Z,7.90
2018-06-28T18:03:16.322Z,9.20
2018-06-28T18:05:47.330Z,8.53
2018-06-28T18:08:17.882Z,8.63
2018-06-28T18:10:48.585Z,8.10
2018-06-28T18:13:19.281Z,8.53
2018-06-28T18:15:49.941Z,7.50
2018-06-28T18:18:20.850Z,8.03
2018-06-28T18:20:51.628Z,6.87
2018-06-28T18:23:22.226Z,10.60
2018-06-28T18:25:52.861Z,13.10
2018-06-28T18:28:23.472Z,9.53
2018-06-28T18:30:54.169Z,6.77
2018-06-28T18:33:24.811Z,7.80
2018-06-28T18:35:55.767Z,7.40
2018-06-28T18:38:26.504Z,8.23
2018-06-28T18:40:57.130Z,6.83
2018-06-28T18:43:27.796Z,16.80
2018-06-28T18:45:58.460Z,10.00
2018-06-28T18:48:29.066Z,8.53
2018-06-28T18:50:59.682Z,7.30
2018-06-28T18:53:30.354Z,6.90
2018-06-28T18:56:01.647Z,6.10
2018-06-28T18:58:32.219Z,6.80
2018-06-28T19:01:02.898Z,6.10
2018-06-28T19:03:33.736Z,6.90
2018-06-28T19:06:04.335Z,6.33
2018-06-28T19:08:35.024Z,6.10
2018-06-28T19:11:05.689Z,6.80
2018-06-28T19:13:40.257Z,6.73
2018-06-28T19:16:16.065Z,6.77
2018-06-28T19:18:46.610Z,7.90
2018-06-28T19:21:22.256Z,7.00
2018-06-28T19:23:53.461Z,6.20
2018-06-28T19:26:24.123Z,6.50
2018-06-28T19:28:54.733Z,25.00
2018-06-28T19:31:30.601Z,9.50
2018-06-28T19:34:01.213Z,6.80
2018-06-28T19:36:32.144Z,6.57
2018-06-28T19:39:07.806Z,5.87
2018-06-28T19:41:43.479Z,6.30
2018-06-28T19:44:14.043Z,6.67
2018-06-28T19:46:44.748Z,6.27
2018-06-28T19:49:20.486Z,6.33
2018-06-28T19:51:56.304Z,6.70
2018-06-28T19:54:26.855Z,8.70
2018-06-28T19:56:57.590Z,7.10
2018-06-28T19:59:28.688Z,6.37
2018-06-28T20:02:04.746Z,6.57
2018-06-28T20:04:40.442Z,7.40
2018-06-28T20:07:11.094Z,8.90
2018-06-28T20:09:41.860Z,6.60
2018-06-28T20:12:17.680Z,7.10
2018-06-28T20:14:53.210Z,6.93
2018-06-28T20:17:29.037Z,6.57
2018-06-28T20:20:05.060Z,7.50
2018-06-28T20:22:35.677Z,6.07
2018-06-28T20:25:06.317Z,7.83
2018-06-28T20:27:41.925Z,6.40
2018-06-28T20:30:17.581Z,7.27
2018-06-28T20:32:53.229Z,6.70
2018-06-28T20:35:23.846Z,6.77
2018-06-28T20:37:54.749Z,6.93
2018-06-28T20:40:25.306Z,6.97
2018-06-28T20:42:55.945Z,6.30
2018-06-28T20:45:26.659Z,6.10
2018-06-28T20:47:57.334Z,6.80
2018-06-28T20:50:27.889Z,6.80
2018-06-28T20:52:58.578Z,6.47
2018-06-28T20:55:29.197Z,7.07
2018-06-28T20:57:59.843Z,6.53
2018-06-28T21:00:30.434Z,7.57
2018-06-28T21:03:01.253Z,6.50
2018-06-28T21:05:31.815Z,6.50
2018-06-28T21:08:02.394Z,6.80
2018-06-28T21:10:33.129Z,6.80
2018-06-28T21:13:03.941Z,7.10
2018-06-28T21:15:34.578Z,5.93
2018-06-28T21:18:05.295Z,6.57
2018-06-28T21:20:36.010Z,6.10
2018-06-28T21:23:06.733Z,7.77
2018-06-28T21:25:37.334Z,7.27
2018-06-28T21:28:08.090Z,9.07
2018-06-28T21:30:38.714Z,6.43
2018-06-28T21:33:09.400Z,6.93
2018-06-28T21:35:40.008Z,7.30
2018-06-28T21:38:10.934Z,7.27
2018-06-28T21:40:41.495Z,7.00
2018-06-28T21:43:12.207Z,8.00
2018-06-28T21:45:42.822Z,7.50
2018-06-28T21:48:13.527Z,7.00
2018-06-28T21:50:44.081Z,7.70
2018-06-28T21:53:14.791Z,7.90
2018-06-28T21:55:45.442Z,8.10
2018-06-28T21:58:16.017Z,6.90
2018-06-28T22:00:46.638Z,7.00
2018-06-28T22:03:17.183Z,7.93
2018-06-28T22:05:47.776Z,6.90
2018-06-28T22:08:18.469Z,6.93
2018-06-28T22:10:49.005Z,7.30
2018-06-28T22:13:19.683Z,7.50
2018-06-28T22:15:50.286Z,7.83
2018-06-28T22:18:20.849Z,7.73
2018-06-28T22:20:51.837Z,7.43
2018-06-28T22:23:22.670Z,7.27
2018-06-28T22:25:53.247Z,7.83
2018-06-28T22:28:23.827Z,8.40
2018-06-28T22:30:54.465Z,7.20
2018-06-28T22:33:25.479Z,8.17
2018-06-28T22:35:56.078Z,8.93
2018-06-28T22:38:26.741Z,8.37
2018-06-28T22:40:57.374Z,8.03
2018-06-28T22:43:28.354Z,7.37
2018-06-28T22:45:58.918Z,8.20
2018-06-28T22:48:29.549Z,24.07
2018-06-28T22:51:00.188Z,15.60
2018-06-28T22:53:30.832Z,12.90
2018-06-28T22:56:01.422Z,8.40
2018-06-28T22:58:31.987Z,8.07
2018-06-28T23:01:02.575Z,7.57
2018-06-28T23:03:33.416Z,8.20
2018-06-28T23:06:04.083Z,8.87
2018-06-28T23:08:34.661Z,8.10
2018-06-28T23:11:05.459Z,8.40
2018-06-28T23:13:36.012Z,7.67
2018-06-28T23:16:07.454Z,7.50
2018-06-28T23:18:38.041Z,9.00
2018-06-28T23:21:08.741Z,8.50
2018-06-28T23:23:39.386Z,8.73
2018-06-28T23:26:09.957Z,8.50
2018-06-28T23:28:40.509Z,7.43
2018-06-28T23:31:11.171Z,7.70
2018-06-28T23:33:41.721Z,8.43
2018-06-28T23:36:12.354Z,41.97
2018-06-28T23:38:42.926Z,14.90
2018-06-28T23:41:13.594Z,18.53
2018-06-28T23:43:44.131Z,11.20
2018-06-28T23:46:14.827Z,7.90
2018-06-28T23:48:45.397Z,7.77
2018-06-28T23:51:15.984Z,8.27
2018-06-28T23:53:46.544Z,8.53
2018-06-28T23:56:17.130Z,8.60
2018-06-28T23:58:47.721Z,7.90
